createdAt,value
2018-02-03T00:00:27.855Z,9.73
2018-02-03T00:02:56.178Z,11.50
2018-02-03T00:05:24.499Z,9.33
2018-02-03T00:07:52.832Z,8.93
2018-02-03T00:10:21.948Z,8.07
2018-02-03T00:12:50.236Z,10.40
2018-02-03T00:15:18.558Z,10.20
2018-02-03T00:17:46.864Z,9.60
2018-02-03T00:20:15.210Z,8.00
2018-02-03T00:22:44.296Z,7.90
2018-02-03T00:25:12.643Z,8.73
2018-02-03T00:27:40.952Z,7.87
2018-02-03T00:30:09.284Z,6.77
2018-02-03T00:32:37.602Z,6.80
2018-02-03T00:35:05.917Z,7.37
2018-02-03T00:37:34.987Z,7.50
2018-02-03T00:40:03.402Z,8.97
2018-02-03T00:42:31.736Z,11.40
2018-02-03T00:45:00.084Z,10.63
2018-02-03T00:47:28.391Z,8.73
2018-02-03T00:49:56.744Z,8.00
2018-02-03T00:52:25.040Z,8.07
2018-02-03T00:54:53.372Z,7.70
2018-02-03T00:57:21.678Z,8.20
2018-02-03T00:59:50.011Z,7.20
2018-02-03T01:02:18.328Z,7.60
2018-02-03T01:04:46.635Z,8.30
2018-02-03T01:07:14.982Z,7.30
2018-02-03T01:09:43.278Z,8.10
2018-02-03T01:12:11.627Z,8.10
2018-02-03T01:14:39.957Z,6.90
2018-02-03T01:17:08.282Z,7.83
2018-02-03T01:19:40.144Z,8.53
2018-02-03T01:22:09.235Z,7.70
2018-02-03T01:24:37.547Z,7.20
2018-02-03T01:27:05.869Z,7.63
2018-02-03T01:29:34.167Z,7.30
2018-02-03T01:32:03.227Z,8.23
2018-02-03T01:34:31.542Z,6.70
2018-02-03T01:37:00.619Z,7.90
2018-02-03T01:39:28.938Z,8.60
2018-02-03T01:41:57.238Z,9.40
2018-02-03T01:44:25.565Z,7.90
2018-02-03T01:46:53.886Z,7.80
2018-02-03T01:49:22.211Z,8.70
2018-02-03T01:51:51.304Z,8.93
2018-02-03T01:54:19.615Z,8.40
2018-02-03T01:56:47.914Z,9.10
2018-02-03T01:59:16.253Z,8.27
2018-02-03T02:01:45.319Z,8.47
2018-02-03T02:04:13.653Z,8.40
2018-02-03T02:06:41.959Z,8.30
2018-02-03T02:09:10.286Z,9.00
2018-02-03T02:11:39.351Z,8.90
2018-02-03T02:14:07.655Z,10.83
2018-02-03T02:16:35.994Z,13.87
2018-02-03T02:19:04.293Z,12.33
2018-02-03T02:21:32.617Z,12.30
2018-02-03T02:24:00.936Z,11.27
2018-02-03T02:26:29.263Z,10.60
2018-02-03T02:28:57.558Z,9.70
2018-02-03T02:31:25.892Z,10.90
2018-02-03T02:33:54.195Z,9.53
2018-02-03T02:36:23.281Z,9.80
2018-02-03T02:38:52.348Z,10.30
2018-02-03T02:41:20.671Z,10.90
2018-02-03T02:43:48.978Z,10.17
2018-02-03T02:46:17.315Z,11.43
2018-02-03T02:48:46.391Z,11.07
2018-02-03T02:51:15.503Z,10.83
2018-02-03T02:53:44.566Z,11.30
2018-02-03T02:56:17.483Z,9.50
2018-02-03T02:58:46.567Z,10.87
2018-02-03T03:01:15.019Z,11.03
2018-02-03T03:03:43.328Z,9.73
2018-02-03T03:06:11.718Z,10.07
2018-02-03T03:08:40.812Z,10.10
2018-02-03T03:11:09.880Z,10.30
2018-02-03T03:13:38.212Z,10.33
2018-02-03T03:16:06.520Z,10.93
2018-02-03T03:18:34.871Z,11.07
2018-02-03T03:21:03.162Z,10.57
2018-02-03T03:23:32.258Z,9.30
2018-02-03T03:26:00.576Z,10.40
2018-02-03T03:28:28.919Z,9.80
2018-02-03T03:30:57.239Z,8.80
2018-02-03T03:33:25.535Z,7.77
2018-02-03T03:35:53.876Z,7.70
2018-02-03T03:38:22.185Z,8.70
2018-02-03T03:40:50.508Z,7.27
2018-02-03T03:43:18.817Z,8.10
2018-02-03T03:45:47.165Z,7.60
2018-02-03T03:48:15.474Z,8.77
2018-02-03T03:50:43.796Z,7.87
2018-02-03T03:53:12.113Z,8.27
2018-02-03T03:55:40.435Z,7.17
2018-02-03T03:58:08.744Z,8.93
2018-02-03T04:00:37.109Z,8.70
2018-02-03T04:03:06.747Z,8.10
2018-02-03T04:05:35.080Z,8.80
2018-02-03T04:08:03.400Z,9.20
2018-02-03T04:10:31.721Z,9.67
2018-02-03T04:13:00.067Z,9.87
2018-02-03T04:15:28.386Z,9.47
2018-02-03T04:17:57.518Z,9.53
2018-02-03T04:20:25.835Z,9.90
2018-02-03T04:22:54.161Z,7.93
2018-02-03T04:25:36.986Z,8.90
2018-02-03T04:28:05.324Z,9.93
2018-02-03T04:30:33.649Z,9.00
2018-02-03T04:33:01.980Z,9.40
2018-02-03T04:35:30.313Z,9.83
2018-02-03T04:37:58.647Z,10.20
2018-02-03T04:40:26.964Z,10.20
2018-02-03T04:42:55.301Z,9.53
2018-02-03T04:45:23.600Z,9.03
2018-02-03T04:47:52.704Z,10.27
2018-02-03T04:50:37.412Z,9.00
2018-02-03T04:53:05.738Z,10.23
2018-02-03T04:55:34.825Z,9.20
2018-02-03T04:58:03.161Z,10.50
2018-02-03T05:00:31.465Z,11.13
2018-02-03T05:03:06.705Z,9.37
2018-02-03T05:05:35.016Z,8.37
2018-02-03T05:08:04.083Z,9.43
2018-02-03T05:10:32.420Z,10.10
2018-02-03T05:13:00.733Z,9.87
2018-02-03T05:15:29.063Z,9.97
2018-02-03T05:17:57.372Z,10.40
2018-02-03T05:20:25.714Z,12.10
2018-02-03T05:22:54.028Z,11.17
2018-02-03T05:25:22.363Z,11.07
2018-02-03T05:27:51.444Z,11.50
2018-02-03T05:30:20.545Z,11.13
2018-02-03T05:32:49.619Z,10.67
2018-02-03T05:35:17.972Z,11.10
2018-02-03T05:37:46.276Z,12.67
2018-02-03T05:40:14.588Z,12.67
2018-02-03T05:43:08.636Z,13.40
2018-02-03T05:45:36.944Z,10.97
2018-02-03T05:48:15.518Z,10.13
2018-02-03T05:50:43.846Z,10.50
2018-02-03T05:59:15.101Z,10.23
2018-02-03T06:01:43.436Z,9.47
2018-02-03T06:04:12.515Z,10.63
2018-02-03T06:06:40.824Z,9.60
2018-02-03T06:09:26.592Z,10.40
2018-02-03T06:14:55.032Z,9.77
2018-02-03T06:17:23.379Z,11.40
2018-02-03T06:19:51.706Z,12.07
2018-02-03T06:22:34.758Z,10.77
2018-02-03T06:25:03.070Z,11.60
2018-02-03T06:27:33.327Z,11.27
2018-02-03T06:30:01.659Z,12.87
2018-02-03T06:32:29.973Z,12.30
2018-02-03T06:34:58.304Z,13.07
2018-02-03T06:37:26.621Z,12.23
2018-02-03T06:39:56.976Z,12.60
2018-02-03T06:42:25.294Z,13.63
2018-02-03T06:44:53.625Z,13.20
2018-02-03T06:47:21.935Z,11.97
2018-02-03T06:49:50.271Z,12.57
2018-02-03T06:52:18.594Z,12.67
2018-02-03T06:54:47.697Z,12.97
2018-02-03T06:57:16.026Z,12.60
2018-02-03T06:59:44.353Z,12.27
2018-02-03T07:02:12.665Z,11.40
2018-02-03T07:04:40.996Z,12.30
2018-02-03T07:07:10.071Z,12.60
2018-02-03T07:09:38.424Z,12.17
2018-02-03T07:12:06.740Z,11.97
2018-02-03T07:14:35.819Z,13.30
2018-02-03T07:17:04.157Z,12.80
2018-02-03T07:19:32.459Z,13.50
2018-02-03T07:22:00.784Z,12.87
2018-02-03T07:24:30.154Z,21.27
2018-02-03T07:26:58.489Z,22.97
2018-02-03T07:29:26.796Z,29.57
2018-02-03T07:31:55.124Z,27.60
2018-02-03T07:34:23.440Z,15.83
2018-02-03T07:36:51.784Z,14.97
2018-02-03T07:39:20.095Z,14.20
2018-02-03T07:41:48.421Z,14.00
2018-02-03T07:44:17.504Z,17.23
2018-02-03T07:46:46.612Z,19.17
2018-02-03T07:49:15.700Z,19.40
2018-02-03T07:51:44.033Z,17.10
2018-02-03T07:54:12.361Z,17.63
2018-02-03T07:56:40.696Z,17.67
2018-02-03T07:59:09.764Z,18.03
2018-02-03T08:01:38.132Z,17.70
2018-02-03T08:04:07.200Z,18.27
2018-02-03T08:06:36.376Z,18.43
2018-02-03T08:09:04.659Z,17.63
2018-02-03T08:11:33.004Z,17.17
2018-02-03T08:14:01.308Z,13.90
2018-02-03T08:16:29.665Z,9.87
2018-02-03T08:18:57.996Z,8.43
2018-02-03T08:21:26.319Z,8.50
2018-02-03T08:23:54.650Z,9.10
2018-02-03T08:26:22.991Z,5.70
2018-02-03T08:28:51.307Z,5.97
2018-02-03T08:31:19.633Z,6.80
2018-02-03T08:33:47.964Z,5.53
2018-02-03T08:36:17.095Z,5.50
2018-02-03T08:38:47.056Z,5.20
2018-02-03T08:41:15.408Z,5.63
2018-02-03T08:43:43.771Z,6.07
2018-02-03T08:46:12.127Z,5.47
2018-02-03T08:48:40.489Z,5.83
2018-02-03T08:51:08.853Z,5.10
2018-02-03T08:53:37.255Z,5.53
2018-02-03T08:56:05.629Z,6.63
2018-02-03T08:58:33.970Z,5.47
2018-02-03T09:01:02.349Z,4.60
2018-02-03T09:03:30.680Z,5.03
2018-02-03T09:05:59.060Z,5.30
2018-02-03T09:08:27.446Z,5.33
2018-02-03T09:10:56.597Z,10.20
2018-02-03T09:13:24.965Z,7.77
2018-02-03T09:15:53.366Z,6.37
2018-02-03T09:18:21.753Z,7.70
2018-02-03T09:20:50.141Z,16.07
2018-02-03T09:23:18.545Z,35.60
2018-02-03T09:25:46.969Z,24.33
2018-02-03T09:28:15.341Z,12.97
2018-02-03T09:30:43.774Z,15.60
2018-02-03T09:33:12.193Z,8.60
2018-02-03T09:35:40.662Z,8.13
2018-02-03T09:38:09.083Z,8.83
2018-02-03T09:40:37.513Z,8.20
2018-02-03T09:43:05.915Z,8.03
2018-02-03T09:45:34.356Z,7.80
2018-02-03T09:48:02.825Z,6.80
2018-02-03T09:50:31.266Z,9.10
2018-02-03T09:52:59.734Z,12.03
2018-02-03T09:55:28.143Z,13.67
2018-02-03T09:57:56.558Z,12.50
2018-02-03T10:00:24.941Z,16.97
2018-02-03T10:02:53.318Z,12.67
2018-02-03T10:05:21.688Z,11.63
2018-02-03T10:07:50.084Z,11.37
2018-02-03T10:10:18.428Z,12.90
2018-02-03T10:12:47.740Z,14.40
2018-02-03T10:15:16.070Z,16.57
2018-02-03T10:17:44.479Z,10.20
2018-02-03T10:20:12.817Z,8.20
2018-02-03T10:22:41.173Z,9.07
2018-02-03T10:25:09.509Z,11.57
2018-02-03T10:27:37.845Z,8.43
2018-02-03T10:30:06.937Z,8.50
2018-02-03T10:32:35.329Z,8.80
2018-02-03T10:35:04.445Z,9.03
2018-02-03T10:37:32.776Z,8.57
2018-02-03T10:40:01.084Z,8.83
2018-02-03T10:42:29.417Z,8.40
2018-02-03T10:44:57.755Z,7.43
2018-02-03T10:47:26.062Z,8.13
2018-02-03T10:49:55.437Z,8.30
2018-02-03T10:52:23.776Z,7.83
2018-02-03T10:54:52.112Z,8.90
2018-02-03T10:57:20.456Z,7.13
2018-02-03T10:59:48.835Z,7.17
2018-02-03T11:02:17.968Z,7.50
2018-02-03T11:04:46.304Z,7.27
2018-02-03T11:07:15.606Z,6.27
2018-02-03T11:09:43.990Z,4.97
2018-02-03T11:12:17.972Z,5.20
2018-02-03T11:55:17.253Z,4.63
2018-02-03T11:57:45.898Z,4.37
2018-02-03T12:00:14.492Z,3.60
2018-02-03T12:02:43.749Z,4.30
2018-02-03T12:05:12.158Z,4.20
2018-02-03T12:07:40.552Z,4.87
2018-02-03T12:10:08.942Z,4.27
2018-02-03T12:12:37.353Z,3.83
2018-02-03T12:15:05.720Z,3.80
2018-02-03T12:17:34.089Z,4.60
2018-02-03T12:20:02.408Z,5.00
2018-02-03T12:22:30.749Z,4.67
2018-02-03T12:24:59.077Z,4.40
2018-02-03T12:27:28.200Z,9.47
2018-02-03T12:29:56.533Z,6.13
2018-02-03T12:32:25.746Z,6.30
2018-02-03T12:34:54.068Z,7.60
2018-02-03T12:37:22.394Z,7.43
2018-02-03T12:39:50.740Z,17.27
2018-02-03T12:42:19.065Z,11.53
2018-02-03T12:44:48.182Z,10.03
2018-02-03T12:47:16.513Z,17.10
2018-02-03T12:49:44.859Z,11.10
2018-02-03T12:52:13.170Z,8.03
2018-02-03T12:54:41.509Z,7.27
2018-02-03T12:57:09.828Z,5.43
2018-02-03T12:59:38.161Z,4.80
2018-02-03T13:02:06.470Z,5.17
2018-02-03T13:04:34.786Z,5.40
2018-02-03T13:07:03.096Z,4.60
2018-02-03T13:09:31.420Z,4.70
2018-02-03T13:11:59.739Z,4.00
2018-02-03T13:14:28.819Z,5.20
2018-02-03T13:16:57.125Z,4.40
2018-02-03T13:19:25.453Z,3.47
2018-02-03T13:21:53.751Z,4.17
2018-02-03T13:24:22.084Z,4.20
2018-02-03T13:26:50.403Z,4.27
2018-02-03T13:29:18.708Z,4.20
2018-02-03T13:31:47.785Z,4.13
2018-02-03T13:34:16.082Z,5.17
2018-02-03T13:36:45.168Z,6.03
2018-02-03T13:39:14.230Z,6.90
2018-02-03T13:41:42.561Z,6.53
2018-02-03T13:44:10.868Z,5.70
2018-02-03T13:46:39.211Z,6.80
2018-02-03T13:49:08.278Z,14.13
2018-02-03T13:51:36.601Z,9.03
2018-02-03T13:54:04.903Z,4.80
2018-02-03T13:56:33.216Z,4.67
2018-02-03T13:59:01.511Z,5.90
2018-02-03T14:01:30.609Z,6.17
2018-02-03T14:03:59.709Z,5.50
2018-02-03T14:06:28.805Z,7.10
2018-02-03T14:08:57.882Z,22.37
2018-02-03T14:11:26.972Z,6.70
2018-02-03T14:13:55.272Z,5.07
2018-02-03T14:16:24.345Z,6.30
2018-02-03T14:18:52.638Z,6.00
2018-02-03T14:21:21.731Z,10.30
2018-02-03T14:23:56.564Z,6.17
2018-02-03T14:26:25.647Z,6.20
2018-02-03T14:28:53.948Z,20.17
2018-02-03T14:31:22.280Z,22.23
2018-02-03T14:33:50.584Z,17.60
2018-02-03T14:36:18.912Z,7.00
2018-02-03T14:38:47.224Z,6.27
2018-02-03T14:41:15.538Z,5.70
2018-02-03T14:43:44.598Z,5.20
2018-02-03T14:46:12.936Z,5.13
2018-02-03T14:48:41.232Z,4.87
2018-02-03T14:51:09.565Z,4.53
2018-02-03T14:53:38.632Z,4.83
2018-02-03T14:56:10.002Z,4.87
2018-02-03T14:58:39.091Z,3.93
2018-02-03T15:01:07.389Z,4.40
2018-02-03T15:03:36.473Z,3.93
2018-02-03T15:06:04.779Z,5.07
2018-02-03T15:08:33.106Z,4.60
2018-02-03T15:11:01.404Z,3.27
2018-02-03T15:13:30.496Z,3.17
2018-02-03T15:15:58.806Z,2.40
2018-02-03T15:18:27.119Z,2.23
2018-02-03T15:20:55.420Z,1.67
2018-02-03T15:23:23.763Z,1.73
2018-02-03T15:25:52.070Z,2.10
2018-02-03T15:28:20.392Z,1.57
2018-02-03T15:30:48.696Z,1.63
2018-02-03T15:33:17.779Z,2.47
2018-02-03T15:35:46.090Z,2.20
2018-02-03T15:38:14.404Z,2.87
2018-02-03T15:40:43.494Z,1.97
2018-02-03T15:43:11.827Z,4.57
2018-02-03T15:45:40.152Z,6.87
2018-02-03T15:48:08.478Z,6.80
2018-02-03T15:50:36.841Z,4.00
2018-02-03T15:53:05.903Z,3.03
2018-02-03T15:55:34.241Z,3.40
2018-02-03T15:58:02.548Z,4.63
2018-02-03T16:00:30.878Z,3.07
2018-02-03T16:02:59.179Z,2.73
2018-02-03T16:05:27.486Z,3.40
2018-02-03T16:07:55.792Z,3.43
2018-02-03T16:10:24.882Z,3.70
2018-02-03T16:12:53.964Z,4.07
2018-02-03T16:15:23.204Z,5.40
2018-02-03T16:17:51.509Z,4.20
2018-02-03T16:20:19.852Z,4.30
2018-02-03T16:22:48.156Z,4.20
2018-02-03T16:25:16.468Z,3.97
2018-02-03T16:27:44.783Z,3.70
2018-02-03T16:30:13.086Z,5.20
2018-02-03T16:32:42.188Z,7.50
2018-02-03T16:35:10.501Z,8.47
2018-02-03T16:37:38.842Z,6.97
2018-02-03T16:40:07.147Z,7.77
2018-02-03T16:42:35.475Z,6.30
2018-02-03T16:45:03.790Z,8.63
2018-02-03T16:47:32.135Z,8.77
2018-02-03T16:50:00.435Z,7.87
2018-02-03T16:52:28.765Z,9.43
2018-02-03T16:54:57.841Z,9.00
2018-02-03T16:57:26.157Z,9.43
2018-02-03T16:59:54.469Z,9.47
2018-02-03T17:02:22.796Z,8.60
2018-02-03T17:04:51.877Z,8.23
2018-02-03T17:07:20.203Z,8.33
2018-02-03T17:09:48.503Z,7.37
2018-02-03T17:12:16.883Z,8.37
2018-02-03T17:14:45.196Z,8.10
2018-02-03T17:17:13.490Z,7.50
2018-02-03T17:19:42.579Z,6.93
2018-02-03T17:22:11.651Z,6.33
2018-02-03T17:24:39.975Z,6.90
2018-02-03T17:27:08.293Z,7.30
2018-02-03T17:29:36.625Z,6.37
2018-02-03T17:32:04.952Z,7.30
2018-02-03T17:34:33.281Z,6.97
2018-02-03T17:37:08.082Z,6.90
2018-02-03T17:39:36.416Z,6.60
2018-02-03T17:42:04.727Z,7.43
2018-02-03T17:44:33.063Z,6.90
2018-02-03T17:47:09.958Z,7.63
2018-02-03T17:49:38.283Z,9.73
2018-02-03T17:52:07.353Z,7.00
2018-02-03T17:54:35.675Z,7.43
2018-02-03T17:57:10.655Z,6.93
2018-02-03T17:59:38.976Z,7.10
2018-02-03T18:02:08.045Z,6.33
2018-02-03T18:04:36.392Z,8.87
2018-02-03T18:07:04.689Z,9.30
2018-02-03T18:09:33.016Z,8.43
2018-02-03T18:12:02.116Z,7.23
2018-02-03T18:14:31.293Z,8.43
2018-02-03T18:16:59.644Z,7.80
2018-02-03T18:19:27.947Z,9.50
2018-02-03T18:21:56.287Z,8.47
2018-02-03T18:24:24.594Z,8.67
2018-02-03T18:26:52.937Z,7.70
2018-02-03T18:29:21.250Z,8.80
2018-02-03T18:31:49.595Z,10.10
2018-02-03T18:34:17.899Z,9.23
2018-02-03T18:36:46.240Z,11.20
2018-02-03T18:39:14.693Z,10.10
2018-02-03T18:41:43.932Z,9.93
2018-02-03T18:44:12.308Z,9.30
2018-02-03T18:46:40.645Z,7.80
2018-02-03T18:49:08.974Z,9.43
2018-02-03T18:51:37.347Z,8.03
2018-02-03T18:54:05.647Z,9.90
2018-02-03T18:56:34.907Z,30.43
2018-02-03T18:59:03.211Z,21.97
2018-02-03T19:01:31.588Z,18.67
2018-02-03T19:03:59.887Z,20.13
2018-02-03T19:06:28.213Z,18.27
2018-02-03T19:08:56.529Z,14.50
2018-02-03T19:11:25.032Z,14.30
2018-02-03T19:13:53.339Z,18.90
2018-02-03T19:16:21.692Z,20.27
2018-02-03T19:18:50.011Z,18.70
2018-02-03T19:21:18.316Z,15.80
2018-02-03T19:23:48.610Z,16.60
2018-02-03T19:26:16.961Z,14.20
2018-02-03T19:28:45.289Z,16.67
2018-02-03T19:31:13.597Z,24.53
2018-02-03T19:33:41.966Z,22.40
2018-02-03T19:36:10.310Z,13.70
2018-02-03T19:38:38.679Z,14.33
2018-02-03T19:41:07.746Z,11.90
2018-02-03T19:43:36.081Z,12.70
2018-02-03T19:46:04.388Z,10.73
2018-02-03T19:48:32.725Z,10.17
2018-02-03T19:51:01.126Z,11.40
2018-02-03T19:53:29.424Z,10.80
2018-02-03T19:55:57.787Z,12.00
2018-02-03T19:58:26.129Z,12.30
2018-02-03T20:00:55.268Z,11.60
2018-02-03T20:03:23.584Z,13.13
2018-02-03T20:05:52.684Z,12.80
2018-02-03T20:08:21.763Z,13.77
2018-02-03T20:10:50.100Z,11.80
2018-02-03T20:13:18.418Z,11.53
2018-02-03T20:15:46.753Z,12.33
2018-02-03T20:18:15.114Z,14.27
2018-02-03T20:20:44.255Z,14.30
2018-02-03T20:23:12.612Z,12.63
2018-02-03T20:25:40.936Z,13.17
2018-02-03T20:28:09.294Z,13.77
2018-02-03T20:30:37.654Z,13.27
2018-02-03T20:33:05.960Z,13.57
2018-02-03T20:35:34.348Z,13.40
2018-02-03T20:38:02.707Z,12.20
2018-02-03T20:40:31.027Z,15.10
2018-02-03T20:43:00.151Z,13.37
2018-02-03T20:45:28.466Z,14.03
2018-02-03T20:47:56.818Z,14.37
2018-02-03T20:50:25.151Z,15.40
2018-02-03T20:52:53.681Z,14.50
2018-02-03T20:55:22.027Z,15.20
2018-02-03T20:57:51.123Z,14.83
2018-02-03T21:00:20.254Z,13.57
2018-02-03T21:02:48.575Z,13.10
2018-02-03T21:05:16.881Z,12.13
2018-02-03T21:07:46.020Z,11.27
2018-02-03T21:10:14.320Z,11.50
2018-02-03T21:12:42.650Z,10.40
2018-02-03T21:15:10.959Z,10.83
2018-02-03T21:17:39.343Z,10.80
2018-02-03T21:20:07.646Z,11.80
2018-02-03T21:22:35.968Z,12.30
2018-02-03T21:25:04.323Z,12.50
2018-02-03T21:27:33.416Z,10.67
2018-02-03T21:30:02.496Z,12.00
2018-02-03T21:32:30.867Z,11.50
2018-02-03T21:34:59.167Z,11.80
2018-02-03T21:37:28.314Z,11.63
2018-02-03T21:39:56.625Z,11.80
2018-02-03T21:42:24.999Z,13.00
2018-02-03T21:44:53.355Z,10.17
2018-02-03T21:47:21.689Z,10.97
2018-02-03T21:49:50.770Z,11.83
2018-02-03T21:52:19.086Z,12.37
2018-02-03T21:54:47.413Z,11.93
2018-02-03T21:57:15.713Z,12.87
2018-02-03T21:59:44.821Z,11.67
2018-02-03T22:02:13.897Z,12.10
2018-02-03T22:04:42.269Z,13.47
2018-02-03T22:07:10.573Z,12.23
2018-02-03T22:09:39.682Z,12.17
2018-02-03T22:12:08.035Z,11.07
2018-02-03T22:14:36.352Z,12.73
2018-02-03T22:17:04.661Z,12.40
2018-02-03T22:19:32.992Z,12.47
2018-02-03T22:22:01.346Z,13.43
2018-02-03T22:24:29.764Z,12.37
2018-02-03T22:26:58.071Z,12.00
2018-02-03T22:29:27.400Z,11.90
2018-02-03T22:31:55.772Z,12.47
2018-02-03T22:34:24.213Z,13.90
2018-02-03T22:36:53.380Z,12.37
2018-02-03T22:39:22.462Z,13.50
2018-02-03T22:41:50.876Z,11.60
2018-02-03T22:44:19.270Z,11.27
2018-02-03T22:46:50.652Z,12.23
2018-02-03T22:49:18.987Z,13.77
2018-02-03T22:51:47.287Z,12.80
2018-02-03T22:54:15.616Z,12.43
2018-02-03T22:56:44.691Z,12.17
2018-02-03T22:59:12.999Z,11.80
2018-02-03T23:01:41.325Z,13.13
2018-02-03T23:04:09.629Z,13.63
2018-02-03T23:06:41.869Z,12.50
2018-02-03T23:09:10.185Z,13.37
2018-02-03T23:11:38.519Z,14.43
2018-02-03T23:14:06.823Z,13.60
2018-02-03T23:16:35.156Z,13.83
2018-02-03T23:19:03.485Z,12.87
2018-02-03T23:21:31.817Z,13.00
2018-02-03T23:24:00.141Z,13.13
2018-02-03T23:26:28.484Z,12.87
2018-02-03T23:28:56.797Z,13.40
2018-02-03T23:31:25.137Z,14.47
2018-02-03T23:33:53.453Z,12.90
2018-02-03T23:36:21.782Z,12.80
2018-02-03T23:38:50.092Z,12.33
2018-02-03T23:41:18.423Z,13.20
2018-02-03T23:43:46.730Z,12.17
2018-02-03T23:46:15.068Z,12.13
2018-02-03T23:48:43.376Z,11.50
2018-02-03T23:51:11.723Z,11.90
2018-02-03T23:53:46.536Z,11.90
2018-02-03T23:56:15.662Z,11.60
2018-02-03T23:58:43.993Z,11.60
